メインページ
METAR-TAF:

METAR-TAF

空港 :

ルイス・ムニョス・マリン国際空港

サンフアン, プエルトリコ, アメリカ合衆国

緯度: 18-27N, 経度: 066-00W, 海抜: 3m

現時点の気象観測

当レポートは53分前の08:56(UTC)に作成
の風 5kt
気温 24°C
湿度 83%
気圧 1017 hPa
視程: 16.1km
高度3000ftの雲はほとんどない
高度7000ftの雲は散在している

METAR: TJSJ 200856Z 10005KT 10SM FEW030 SCT070 24/21 A3003 RMK AO2 RAE0757 SLP168 P0000 60000 T02390211 55001

時間: 05:49 (09:49 UTC)

予報

当レポートは4時間14分前の05:35(UTC)に作成
予報は20日の 06時(UTC)から 21日の 06時(UTC)まで有効
東/南東の風 10kt
視程: 10km
高度2500ftの雲はほとんどない
高度4000ftの雲は散在している
小雨
20日の 1300時(UTC)から
の風 18kt、最大28ktの突風を伴う
視程: 10km
高度3000ftの雲はほとんどない
高度5000ftの雲は散在している
近辺でにわか雨
20日の 2300時(UTC)から
東/南東の風 10kt
視程: 10km
高度2500ftの雲は散在している

TAF: TJSJ 200535Z 2006/2106 11010KT P6SM -RA FEW025 SCT040 FM201300 08018G28KT P6SM VCSH FEW030 SCT050 FM202300 11010KT P6SM SCT025

4,000以上の空港の気象観測と天気予報(METAR報とTAF報)

利用可能な観測所は地図上に黄色い丸と赤い丸で示す。

丸の上にカーソルを重ねると観測所名を参照できる。

次にクリックすると気象観測と天気予報を参照できる。

マップの切り替え:黒色「×」印の緑ボタンをクリックして拡大、「-」印の緑ボタンをクリックして縮小、緑色の三角印をクリックして隣りの地図に切り替え


METAR-TAF: